Time;durP1;ratioP1;P1;durP2;ratioP2;P2;SDS_P1;SDS_P2;PMS_P1;PMS_P2;Temp;Humidity;BMP_temperature;BMP_pressure;BME280_temperature;BME280_humidity;BME280_pressure;Samples;Min_cycle;Max_cycle;Signal;HPM_P1;HPM_P2
2020/10/02 00:00:04;;;;;;;11.95;9.35;;;;;;;11.8;89.02344;93910.17;;;;
2020/10/02 00:01:09;;;;;;;11.95;9.35;;;;;;;11.8;89.02344;93910.17;;;;
2020/10/02 00:02:10;;;;;;;11.95;9.35;;;;;;;11.8;89.02344;93910.17;;;;
2020/10/02 00:03:11;;;;;;;10.3;8.5;;;;;;;11.54;89.84473;93915.34;;;;
2020/10/02 00:04:14;;;;;;;10.3;8.5;;;;;;;11.54;89.84473;93915.34;;;;
2020/10/02 00:05:18;;;;;;;10.3;8.5;;;;;;;11.54;89.84473;93915.34;;;;
2020/10/02 00:06:26;;;;;;;10.3;8.5;;;;;;;11.54;89.84473;93915.34;;;;
2020/10/02 00:07:40;;;;;;;10.3;8.5;;;;;;;11.54;89.84473;93915.34;;;;
2020/10/02 00:08:55;;;;;;;10.3;8.5;;;;;;;11.54;89.84473;93915.34;;;;
2020/10/02 00:10:02;;;;;;;10.3;8.5;;;;;;;11.54;89.84473;93915.34;;;;
2020/10/02 00:11:07;;;;;;;10.3;8.5;;;;;;;11.54;89.84473;93915.34;;;;
2020/10/02 00:12:15;;;;;;;10.3;8.5;;;;;;;11.54;89.84473;93915.34;;;;
2020/10/02 00:13:15;;;;;;;10.15;8.700002;;;;;;;11.26;90.40723;93901.11;;;;
2020/10/02 00:14:16;;;;;;;10.15;8.700002;;;;;;;11.26;90.40723;93901.11;;;;
2020/10/02 00:15:16;;;;;;;10.15;8.700002;;;;;;;11.26;90.40723;93901.11;;;;
2020/10/02 00:16:17;;;;;;;10.15;8.700002;;;;;;;11.26;90.40723;93901.11;;;;
2020/10/02 00:17:19;;;;;;;10.15;8.700002;;;;;;;11.26;90.40723;93901.11;;;;
2020/10/02 00:18:19;;;;;;;10.15;8.700002;;;;;;;11.26;90.40723;93901.11;;;;
2020/10/02 00:19:20;;;;;;;10.15;8.700002;;;;;;;11.26;90.40723;93901.11;;;;
2020/10/02 00:20:21;;;;;;;10.15;8.700002;;;;;;;11.26;90.40723;93901.11;;;;
2020/10/02 00:21:21;;;;;;;10.15;8.700002;;;;;;;11.26;90.40723;93901.11;;;;
2020/10/02 00:22:22;;;;;;;10.15;8.700002;;;;;;;11.26;90.40723;93901.11;;;;
2020/10/02 00:23:22;;;;;;;10.15;8.700002;;;;;;;11.26;90.40723;93901.11;;;;
2020/10/02 00:24:26;;;;;;;12.2;8.950001;;;;;;;11.08;90.94629;93888.17;;;;
2020/10/02 00:25:27;;;;;;;12.2;8.950001;;;;;;;11.08;90.94629;93888.17;;;;
2020/10/02 00:26:27;;;;;;;12.2;8.950001;;;;;;;11.08;90.94629;93888.17;;;;
2020/10/02 00:27:28;;;;;;;12.2;8.950001;;;;;;;11.08;90.94629;93888.17;;;;
2020/10/02 00:28:28;;;;;;;12.2;8.950001;;;;;;;11.08;90.94629;93888.17;;;;
2020/10/02 00:29:30;;;;;;;12.2;8.950001;;;;;;;11.08;90.94629;93888.17;;;;
2020/10/02 00:30:31;;;;;;;12.2;8.950001;;;;;;;11.08;90.94629;93888.17;;;;
2020/10/02 00:31:31;;;;;;;12.2;8.950001;;;;;;;11.08;90.94629;93888.17;;;;
2020/10/02 00:32:32;;;;;;;12.2;8.950001;;;;;;;11.08;90.94629;93888.17;;;;
2020/10/02 00:33:32;;;;;;;12.2;8.950001;;;;;;;11.08;90.94629;93888.17;;;;
2020/10/02 00:34:33;;;;;;;11.8;9.300001;;;;;;;10.83;91.45801;93881.86;;;;
2020/10/02 00:35:35;;;;;;;11.8;9.300001;;;;;;;10.83;91.45801;93881.86;;;;
2020/10/02 00:36:36;;;;;;;11.8;9.300001;;;;;;;10.83;91.45801;93881.86;;;;
2020/10/02 00:37:37;;;;;;;11.8;9.300001;;;;;;;10.83;91.45801;93881.86;;;;
2020/10/02 00:38:37;;;;;;;11.8;9.300001;;;;;;;10.83;91.45801;93881.86;;;;
2020/10/02 00:39:38;;;;;;;11.8;9.300001;;;;;;;10.83;91.45801;93881.86;;;;
2020/10/02 00:40:39;;;;;;;11.8;9.300001;;;;;;;10.83;91.45801;93881.86;;;;
2020/10/02 00:41:39;;;;;;;11.8;9.300001;;;;;;;10.83;91.45801;93881.86;;;;
2020/10/02 00:42:40;;;;;;;11.8;9.300001;;;;;;;10.83;91.45801;93881.86;;;;
2020/10/02 00:43:40;;;;;;;11.8;9.300001;;;;;;;10.83;91.45801;93881.86;;;;
2020/10/02 00:44:41;;;;;;;11.8;9.300001;;;;;;;10.83;91.45801;93881.86;;;;
2020/10/02 00:45:41;;;;;;;11.35;9.2;;;;;;;10.65;92.0918;93863.36;;;;
2020/10/02 00:46:42;;;;;;;11.35;9.2;;;;;;;10.65;92.0918;93863.36;;;;
2020/10/02 00:47:43;;;;;;;11.35;9.2;;;;;;;10.65;92.0918;93863.36;;;;
2020/10/02 00:48:44;;;;;;;11.35;9.2;;;;;;;10.65;92.0918;93863.36;;;;
2020/10/02 00:49:45;;;;;;;11.35;9.2;;;;;;;10.65;92.0918;93863.36;;;;
2020/10/02 00:50:50;;;;;;;11.35;9.2;;;;;;;10.65;92.0918;93863.36;;;;
2020/10/02 00:51:51;;;;;;;11.35;9.2;;;;;;;10.65;92.0918;93863.36;;;;
2020/10/02 00:52:51;;;;;;;11.35;9.2;;;;;;;10.65;92.0918;93863.36;;;;
2020/10/02 00:53:54;;;;;;;11.35;9.2;;;;;;;10.65;92.0918;93863.36;;;;
2020/10/02 00:54:58;;;;;;;11.35;9.2;;;;;;;10.65;92.0918;93863.36;;;;
2020/10/02 00:55:58;;;;;;;13.5;10;;;;;;;10.46;92.62891;93840.71;;;;
2020/10/02 00:56:59;;;;;;;13.5;10;;;;;;;10.46;92.62891;93840.71;;;;
2020/10/02 00:58:03;;;;;;;13.5;10;;;;;;;10.46;92.62891;93840.71;;;;
2020/10/02 00:59:07;;;;;;;13.5;10;;;;;;;10.46;92.62891;93840.71;;;;
2020/10/02 01:00:08;;;;;;;13.5;10;;;;;;;10.46;92.62891;93840.71;;;;
2020/10/02 01:01:08;;;;;;;13.5;10;;;;;;;10.46;92.62891;93840.71;;;;
2020/10/02 01:02:10;;;;;;;13.5;10;;;;;;;10.46;92.62891;93840.71;;;;
2020/10/02 01:03:11;;;;;;;13.5;10;;;;;;;10.46;92.62891;93840.71;;;;
2020/10/02 01:04:12;;;;;;;13.5;10;;;;;;;10.46;92.62891;93840.71;;;;
2020/10/02 01:05:13;;;;;;;13.5;10;;;;;;;10.46;92.62891;93840.71;;;;
2020/10/02 01:06:14;;;;;;;13.5;10;;;;;;;10.46;92.62891;93840.71;;;;
2020/10/02 01:07:14;;;;;;;13.55;10;;;;;;;10.35;93.12402;93831;;;;
2020/10/02 01:08:15;;;;;;;13.55;10;;;;;;;10.35;93.12402;93831;;;;
2020/10/02 01:09:15;;;;;;;13.55;10;;;;;;;10.35;93.12402;93831;;;;
2020/10/02 01:10:16;;;;;;;13.55;10;;;;;;;10.35;93.12402;93831;;;;
2020/10/02 01:11:17;;;;;;;13.55;10;;;;;;;10.35;93.12402;93831;;;;
2020/10/02 01:12:18;;;;;;;13.55;10;;;;;;;10.35;93.12402;93831;;;;
2020/10/02 01:13:18;;;;;;;13.55;10;;;;;;;10.35;93.12402;93831;;;;
2020/10/02 01:14:19;;;;;;;13.55;10;;;;;;;10.35;93.12402;93831;;;;
2020/10/02 01:15:21;;;;;;;13.55;10;;;;;;;10.35;93.12402;93831;;;;
2020/10/02 01:16:21;;;;;;;13.55;10;;;;;;;10.35;93.12402;93831;;;;
2020/10/02 01:17:22;;;;;;;12.55;9.25;;;;;;;10.11;93.42188;93811.58;;;;
2020/10/02 01:18:22;;;;;;;12.55;9.25;;;;;;;10.11;93.42188;93811.58;;;;
2020/10/02 01:19:23;;;;;;;12.55;9.25;;;;;;;10.11;93.42188;93811.58;;;;
2020/10/02 01:20:23;;;;;;;12.55;9.25;;;;;;;10.11;93.42188;93811.58;;;;
2020/10/02 01:21:24;;;;;;;12.55;9.25;;;;;;;10.11;93.42188;93811.58;;;;
2020/10/02 01:22:24;;;;;;;12.55;9.25;;;;;;;10.11;93.42188;93811.58;;;;
2020/10/02 01:23:25;;;;;;;12.55;9.25;;;;;;;10.11;93.42188;93811.58;;;;
2020/10/02 01:24:25;;;;;;;12.55;9.25;;;;;;;10.11;93.42188;93811.58;;;;
2020/10/02 01:25:26;;;;;;;12.55;9.25;;;;;;;10.11;93.42188;93811.58;;;;
2020/10/02 01:26:27;;;;;;;12.55;9.25;;;;;;;10.11;93.42188;93811.58;;;;
2020/10/02 01:27:27;;;;;;;12.55;9.25;;;;;;;10.11;93.42188;93811.58;;;;
2020/10/02 01:28:28;;;;;;;10.9;8.550001;;;;;;;9.94;93.80273;93804.64;;;;
2020/10/02 01:29:28;;;;;;;10.9;8.550001;;;;;;;9.94;93.80273;93804.64;;;;
2020/10/02 01:30:29;;;;;;;10.9;8.550001;;;;;;;9.94;93.80273;93804.64;;;;
2020/10/02 01:31:29;;;;;;;10.9;8.550001;;;;;;;9.94;93.80273;93804.64;;;;
2020/10/02 01:32:30;;;;;;;10.9;8.550001;;;;;;;9.94;93.80273;93804.64;;;;
2020/10/02 01:33:31;;;;;;;10.9;8.550001;;;;;;;9.94;93.80273;93804.64;;;;
2020/10/02 01:34:31;;;;;;;10.9;8.550001;;;;;;;9.94;93.80273;93804.64;;;;
2020/10/02 01:35:32;;;;;;;10.9;8.550001;;;;;;;9.94;93.80273;93804.64;;;;
2020/10/02 01:36:32;;;;;;;10.9;8.550001;;;;;;;9.94;93.80273;93804.64;;;;
2020/10/02 01:37:33;;;;;;;10.9;8.550001;;;;;;;9.94;93.80273;93804.64;;;;
2020/10/02 01:38:34;;;;;;;11.4;9.65;;;;;;;9.7;94.06836;93771.58;;;;
2020/10/02 01:39:36;;;;;;;11.4;9.65;;;;;;;9.7;94.06836;93771.58;;;;
2020/10/02 01:40:37;;;;;;;11.4;9.65;;;;;;;9.7;94.06836;93771.58;;;;
2020/10/02 01:41:38;;;;;;;11.4;9.65;;;;;;;9.7;94.06836;93771.58;;;;
2020/10/02 01:42:38;;;;;;;11.4;9.65;;;;;;;9.7;94.06836;93771.58;;;;
2020/10/02 01:43:39;;;;;;;11.4;9.65;;;;;;;9.7;94.06836;93771.58;;;;
2020/10/02 01:44:40;;;;;;;11.4;9.65;;;;;;;9.7;94.06836;93771.58;;;;
2020/10/02 01:45:40;;;;;;;11.4;9.65;;;;;;;9.7;94.06836;93771.58;;;;
2020/10/02 01:46:41;;;;;;;11.4;9.65;;;;;;;9.7;94.06836;93771.58;;;;
2020/10/02 01:47:42;;;;;;;11.4;9.65;;;;;;;9.7;94.06836;93771.58;;;;
2020/10/02 01:48:42;;;;;;;11.4;9.65;;;;;;;9.7;94.06836;93771.58;;;;
2020/10/02 01:49:43;;;;;;;11.8;10.25;;;;;;;9.56;94.43262;93757.42;;;;
2020/10/02 01:50:43;;;;;;;11.8;10.25;;;;;;;9.56;94.43262;93757.42;;;;
2020/10/02 01:51:44;;;;;;;11.8;10.25;;;;;;;9.56;94.43262;93757.42;;;;
2020/10/02 01:52:44;;;;;;;11.8;10.25;;;;;;;9.56;94.43262;93757.42;;;;
2020/10/02 01:53:45;;;;;;;11.8;10.25;;;;;;;9.56;94.43262;93757.42;;;;
2020/10/02 01:54:45;;;;;;;11.8;10.25;;;;;;;9.56;94.43262;93757.42;;;;
2020/10/02 01:55:46;;;;;;;11.8;10.25;;;;;;;9.56;94.43262;93757.42;;;;
2020/10/02 01:56:46;;;;;;;11.8;10.25;;;;;;;9.56;94.43262;93757.42;;;;
2020/10/02 01:57:47;;;;;;;11.8;10.25;;;;;;;9.56;94.43262;93757.42;;;;
2020/10/02 01:58:48;;;;;;;11.8;10.25;;;;;;;9.56;94.43262;93757.42;;;;
2020/10/02 01:59:48;;;;;;;11;9.000002;;;;;;;9.38;94.7207;93729.22;;;;
2020/10/02 02:00:49;;;;;;;11;9.000002;;;;;;;9.38;94.7207;93729.22;;;;
2020/10/02 02:01:49;;;;;;;11;9.000002;;;;;;;9.38;94.7207;93729.22;;;;
2020/10/02 02:02:50;;;;;;;11;9.000002;;;;;;;9.38;94.7207;93729.22;;;;
2020/10/02 02:03:51;;;;;;;11;9.000002;;;;;;;9.38;94.7207;93729.22;;;;
2020/10/02 02:04:51;;;;;;;11;9.000002;;;;;;;9.38;94.7207;93729.22;;;;
2020/10/02 02:05:52;;;;;;;11;9.000002;;;;;;;9.38;94.7207;93729.22;;;;
2020/10/02 02:06:53;;;;;;;11;9.000002;;;;;;;9.38;94.7207;93729.22;;;;
2020/10/02 02:07:53;;;;;;;11;9.000002;;;;;;;9.38;94.7207;93729.22;;;;
2020/10/02 02:08:54;;;;;;;11;9.000002;;;;;;;9.38;94.7207;93729.22;;;;
2020/10/02 02:09:55;;;;;;;11;9.000002;;;;;;;9.38;94.7207;93729.22;;;;
2020/10/02 02:10:55;;;;;;;12.5;9.65;;;;;;;9.28;95.01855;93714.25;;;;
2020/10/02 02:11:56;;;;;;;12.5;9.65;;;;;;;9.28;95.01855;93714.25;;;;
2020/10/02 02:12:56;;;;;;;12.5;9.65;;;;;;;9.28;95.01855;93714.25;;;;
2020/10/02 02:13:57;;;;;;;12.5;9.65;;;;;;;9.28;95.01855;93714.25;;;;
2020/10/02 02:14:57;;;;;;;12.5;9.65;;;;;;;9.28;95.01855;93714.25;;;;
2020/10/02 02:15:58;;;;;;;12.5;9.65;;;;;;;9.28;95.01855;93714.25;;;;
2020/10/02 02:16:58;;;;;;;12.5;9.65;;;;;;;9.28;95.01855;93714.25;;;;
2020/10/02 02:17:59;;;;;;;12.5;9.65;;;;;;;9.28;95.01855;93714.25;;;;
2020/10/02 02:18:59;;;;;;;12.5;9.65;;;;;;;9.28;95.01855;93714.25;;;;
2020/10/02 02:20:00;;;;;;;12.5;9.65;;;;;;;9.28;95.01855;93714.25;;;;
2020/10/02 02:21:00;;;;;;;12.5;9.65;;;;;;;9.28;95.01855;93714.25;;;;
2020/10/02 02:22:01;;;;;;;12.7;9.450001;;;;;;;9.14;95.15918;93701.03;;;;
2020/10/02 02:23:02;;;;;;;12.7;9.450001;;;;;;;9.14;95.15918;93701.03;;;;
2020/10/02 02:24:03;;;;;;;12.7;9.450001;;;;;;;9.14;95.15918;93701.03;;;;
2020/10/02 02:25:03;;;;;;;12.7;9.450001;;;;;;;9.14;95.15918;93701.03;;;;
2020/10/02 02:26:04;;;;;;;12.7;9.450001;;;;;;;9.14;95.15918;93701.03;;;;
2020/10/02 02:27:04;;;;;;;12.7;9.450001;;;;;;;9.14;95.15918;93701.03;;;;
2020/10/02 02:28:05;;;;;;;12.7;9.450001;;;;;;;9.14;95.15918;93701.03;;;;
2020/10/02 02:29:05;;;;;;;12.7;9.450001;;;;;;;9.14;95.15918;93701.03;;;;
2020/10/02 02:30:06;;;;;;;12.7;9.450001;;;;;;;9.14;95.15918;93701.03;;;;
2020/10/02 02:31:07;;;;;;;12.7;9.450001;;;;;;;9.14;95.15918;93701.03;;;;
2020/10/02 02:32:08;;;;;;;12.85;9.949999;;;;;;;9.09;95.33789;93696.98;;;;
2020/10/02 02:33:11;;;;;;;12.85;9.949999;;;;;;;9.09;95.33789;93696.98;;;;
2020/10/02 02:34:12;;;;;;;12.85;9.949999;;;;;;;9.09;95.33789;93696.98;;;;
2020/10/02 02:35:12;;;;;;;12.85;9.949999;;;;;;;9.09;95.33789;93696.98;;;;
2020/10/02 02:36:13;;;;;;;12.85;9.949999;;;;;;;9.09;95.33789;93696.98;;;;
2020/10/02 02:37:13;;;;;;;12.85;9.949999;;;;;;;9.09;95.33789;93696.98;;;;
2020/10/02 02:38:14;;;;;;;12.85;9.949999;;;;;;;9.09;95.33789;93696.98;;;;
2020/10/02 02:39:15;;;;;;;12.85;9.949999;;;;;;;9.09;95.33789;93696.98;;;;
2020/10/02 02:40:15;;;;;;;12.85;9.949999;;;;;;;9.09;95.33789;93696.98;;;;
2020/10/02 02:41:15;;;;;;;12.85;9.949999;;;;;;;9.09;95.33789;93696.98;;;;
2020/10/02 02:42:16;;;;;;;12.85;9.949999;;;;;;;9.09;95.33789;93696.98;;;;
2020/10/02 02:43:17;;;;;;;12.15;9.8;;;;;;;8.97;95.50195;93686.17;;;;
2020/10/02 02:44:17;;;;;;;12.15;9.8;;;;;;;8.97;95.50195;93686.17;;;;
2020/10/02 02:45:18;;;;;;;12.15;9.8;;;;;;;8.97;95.50195;93686.17;;;;
2020/10/02 02:46:18;;;;;;;12.15;9.8;;;;;;;8.97;95.50195;93686.17;;;;
2020/10/02 02:47:19;;;;;;;12.15;9.8;;;;;;;8.97;95.50195;93686.17;;;;
2020/10/02 02:48:19;;;;;;;12.15;9.8;;;;;;;8.97;95.50195;93686.17;;;;
2020/10/02 02:49:20;;;;;;;12.15;9.8;;;;;;;8.97;95.50195;93686.17;;;;
2020/10/02 02:50:22;;;;;;;12.15;9.8;;;;;;;8.97;95.50195;93686.17;;;;
2020/10/02 02:51:22;;;;;;;12.15;9.8;;;;;;;8.97;95.50195;93686.17;;;;
2020/10/02 02:52:23;;;;;;;12.15;9.8;;;;;;;8.97;95.50195;93686.17;;;;
2020/10/02 02:53:23;;;;;;;12.9;9.75;;;;;;;8.93;95.71582;93660.86;;;;
2020/10/02 02:54:24;;;;;;;12.9;9.75;;;;;;;8.93;95.71582;93660.86;;;;
2020/10/02 02:55:24;;;;;;;12.9;9.75;;;;;;;8.93;95.71582;93660.86;;;;
2020/10/02 02:56:25;;;;;;;12.9;9.75;;;;;;;8.93;95.71582;93660.86;;;;
2020/10/02 02:57:25;;;;;;;12.9;9.75;;;;;;;8.93;95.71582;93660.86;;;;
2020/10/02 02:58:26;;;;;;;12.9;9.75;;;;;;;8.93;95.71582;93660.86;;;;
2020/10/02 02:59:26;;;;;;;12.9;9.75;;;;;;;8.93;95.71582;93660.86;;;;
2020/10/02 03:00:27;;;;;;;12.9;9.75;;;;;;;8.93;95.71582;93660.86;;;;
2020/10/02 03:01:27;;;;;;;12.9;9.75;;;;;;;8.93;95.71582;93660.86;;;;
2020/10/02 03:02:28;;;;;;;12.9;9.75;;;;;;;8.93;95.71582;93660.86;;;;
2020/10/02 03:03:28;;;;;;;12.9;9.75;;;;;;;8.93;95.71582;93660.86;;;;
2020/10/02 03:04:29;;;;;;;12.6;9.749999;;;;;;;8.81;95.88184;93653.41;;;;
2020/10/02 03:05:29;;;;;;;12.6;9.749999;;;;;;;8.81;95.88184;93653.41;;;;
2020/10/02 03:06:30;;;;;;;12.6;9.749999;;;;;;;8.81;95.88184;93653.41;;;;
2020/10/02 03:07:30;;;;;;;12.6;9.749999;;;;;;;8.81;95.88184;93653.41;;;;
2020/10/02 03:08:31;;;;;;;12.6;9.749999;;;;;;;8.81;95.88184;93653.41;;;;
2020/10/02 03:09:31;;;;;;;12.6;9.749999;;;;;;;8.81;95.88184;93653.41;;;;
2020/10/02 03:10:32;;;;;;;12.6;9.749999;;;;;;;8.81;95.88184;93653.41;;;;
2020/10/02 03:11:32;;;;;;;12.6;9.749999;;;;;;;8.81;95.88184;93653.41;;;;
2020/10/02 03:12:33;;;;;;;12.6;9.749999;;;;;;;8.81;95.88184;93653.41;;;;
2020/10/02 03:13:33;;;;;;;12.6;9.749999;;;;;;;8.81;95.88184;93653.41;;;;
2020/10/02 03:14:34;;;;;;;11.95;9.950001;;;;;;;8.75;96.18652;93612.78;;;;
2020/10/02 03:15:35;;;;;;;11.95;9.950001;;;;;;;8.75;96.18652;93612.78;;;;
2020/10/02 03:16:35;;;;;;;11.95;9.950001;;;;;;;8.75;96.18652;93612.78;;;;
2020/10/02 03:17:43;;;;;;;11.95;9.950001;;;;;;;8.75;96.18652;93612.78;;;;
2020/10/02 03:18:43;;;;;;;11.95;9.950001;;;;;;;8.75;96.18652;93612.78;;;;
2020/10/02 03:19:44;;;;;;;11.95;9.950001;;;;;;;8.75;96.18652;93612.78;;;;
2020/10/02 03:20:45;;;;;;;11.95;9.950001;;;;;;;8.75;96.18652;93612.78;;;;
2020/10/02 03:21:45;;;;;;;11.95;9.950001;;;;;;;8.75;96.18652;93612.78;;;;
2020/10/02 03:22:46;;;;;;;11.95;9.950001;;;;;;;8.75;96.18652;93612.78;;;;
2020/10/02 03:23:46;;;;;;;11.95;9.950001;;;;;;;8.75;96.18652;93612.78;;;;
2020/10/02 03:24:47;;;;;;;11.95;9.950001;;;;;;;8.75;96.18652;93612.78;;;;
2020/10/02 03:25:47;;;;;;;16.25;11.05;;;;;;;8.69;96.41309;93599.56;;;;
2020/10/02 03:26:48;;;;;;;16.25;11.05;;;;;;;8.69;96.41309;93599.56;;;;
2020/10/02 03:27:48;;;;;;;16.25;11.05;;;;;;;8.69;96.41309;93599.56;;;;
2020/10/02 03:28:49;;;;;;;16.25;11.05;;;;;;;8.69;96.41309;93599.56;;;;
2020/10/02 03:29:49;;;;;;;16.25;11.05;;;;;;;8.69;96.41309;93599.56;;;;
2020/10/02 03:30:50;;;;;;;16.25;11.05;;;;;;;8.69;96.41309;93599.56;;;;
2020/10/02 03:31:50;;;;;;;16.25;11.05;;;;;;;8.69;96.41309;93599.56;;;;
2020/10/02 03:32:51;;;;;;;16.25;11.05;;;;;;;8.69;96.41309;93599.56;;;;
2020/10/02 03:33:51;;;;;;;16.25;11.05;;;;;;;8.69;96.41309;93599.56;;;;
2020/10/02 03:34:52;;;;;;;16.25;11.05;;;;;;;8.69;96.41309;93599.56;;;;
2020/10/02 03:35:52;;;;;;;18.5;13;;;;;;;8.79;96.66895;93596.92;;;;
2020/10/02 03:36:53;;;;;;;18.5;13;;;;;;;8.79;96.66895;93596.92;;;;
2020/10/02 03:37:54;;;;;;;18.5;13;;;;;;;8.79;96.66895;93596.92;;;;
2020/10/02 03:38:54;;;;;;;18.5;13;;;;;;;8.79;96.66895;93596.92;;;;
2020/10/02 03:39:55;;;;;;;18.5;13;;;;;;;8.79;96.66895;93596.92;;;;
2020/10/02 03:40:55;;;;;;;18.5;13;;;;;;;8.79;96.66895;93596.92;;;;
2020/10/02 03:41:56;;;;;;;18.5;13;;;;;;;8.79;96.66895;93596.92;;;;
2020/10/02 03:42:59;;;;;;;18.5;13;;;;;;;8.79;96.66895;93596.92;;;;
2020/10/02 03:44:03;;;;;;;18.5;13;;;;;;;8.79;96.66895;93596.92;;;;
2020/10/02 03:45:07;;;;;;;18.5;13;;;;;;;8.79;96.66895;93596.92;;;;
2020/10/02 03:46:18;;;;;;;18.5;13;;;;;;;8.79;96.66895;93596.92;;;;
2020/10/02 03:47:18;;;;;;;18.25;13.95;;;;;;;8.9;96.76855;93580.13;;;;
2020/10/02 03:48:23;;;;;;;18.25;13.95;;;;;;;8.9;96.76855;93580.13;;;;
2020/10/02 03:49:24;;;;;;;18.25;13.95;;;;;;;8.9;96.76855;93580.13;;;;
2020/10/02 03:50:26;;;;;;;18.25;13.95;;;;;;;8.9;96.76855;93580.13;;;;
2020/10/02 03:51:31;;;;;;;18.25;13.95;;;;;;;8.9;96.76855;93580.13;;;;
2020/10/02 03:52:53;;;;;;;18.25;13.95;;;;;;;8.9;96.76855;93580.13;;;;
2020/10/02 03:54:15;;;;;;;18.25;13.95;;;;;;;8.9;96.76855;93580.13;;;;
2020/10/02 03:55:32;;;;;;;18.25;13.95;;;;;;;8.9;96.76855;93580.13;;;;
2020/10/02 03:56:40;;;;;;;18.25;13.95;;;;;;;8.9;96.76855;93580.13;;;;
2020/10/02 03:57:51;;;;;;;25;16.25;;;;;;;9.06;97.10938;93567.08;;;;
2020/10/02 03:59:12;;;;;;;25;16.25;;;;;;;9.06;97.10938;93567.08;;;;
2020/10/02 04:00:17;;;;;;;25;16.25;;;;;;;9.06;97.10938;93567.08;;;;
2020/10/02 04:01:17;;;;;;;25;16.25;;;;;;;9.06;97.10938;93567.08;;;;
2020/10/02 04:02:26;;;;;;;25;16.25;;;;;;;9.06;97.10938;93567.08;;;;
2020/10/02 04:03:31;;;;;;;25;16.25;;;;;;;9.06;97.10938;93567.08;;;;
2020/10/02 04:04:45;;;;;;;25;16.25;;;;;;;9.06;97.10938;93567.08;;;;
2020/10/02 04:06:00;;;;;;;25;16.25;;;;;;;9.06;97.10938;93567.08;;;;
2020/10/02 04:07:00;;;;;;;25;16.25;;;;;;;9.06;97.10938;93567.08;;;;
2020/10/02 04:08:02;;;;;;;20.55;16.35;;;;;;;9.26;97.4834;93554.03;;;;
2020/10/02 04:09:08;;;;;;;20.55;16.35;;;;;;;9.26;97.4834;93554.03;;;;
2020/10/02 04:10:08;;;;;;;20.55;16.35;;;;;;;9.26;97.4834;93554.03;;;;
2020/10/02 04:11:09;;;;;;;20.55;16.35;;;;;;;9.26;97.4834;93554.03;;;;
2020/10/02 04:12:10;;;;;;;20.55;16.35;;;;;;;9.26;97.4834;93554.03;;;;
2020/10/02 04:13:12;;;;;;;20.55;16.35;;;;;;;9.26;97.4834;93554.03;;;;
2020/10/02 04:14:16;;;;;;;20.55;16.35;;;;;;;9.26;97.4834;93554.03;;;;
2020/10/02 04:15:26;;;;;;;20.55;16.35;;;;;;;9.26;97.4834;93554.03;;;;
2020/10/02 04:16:27;;;;;;;20.55;16.35;;;;;;;9.26;97.4834;93554.03;;;;
2020/10/02 04:17:39;;;;;;;20.55;16.35;;;;;;;9.26;97.4834;93554.03;;;;
2020/10/02 04:18:40;;;;;;;21.95;15.3;;;;;;;9.6;97.69727;93539.43;;;;
2020/10/02 04:19:41;;;;;;;21.95;15.3;;;;;;;9.6;97.69727;93539.43;;;;
2020/10/02 04:20:47;;;;;;;21.95;15.3;;;;;;;9.6;97.69727;93539.43;;;;
2020/10/02 04:21:48;;;;;;;21.95;15.3;;;;;;;9.6;97.69727;93539.43;;;;
2020/10/02 04:22:58;;;;;;;21.95;15.3;;;;;;;9.6;97.69727;93539.43;;;;
2020/10/02 04:24:11;;;;;;;21.95;15.3;;;;;;;9.6;97.69727;93539.43;;;;
2020/10/02 04:25:11;;;;;;;21.95;15.3;;;;;;;9.6;97.69727;93539.43;;;;
2020/10/02 04:26:18;;;;;;;21.95;15.3;;;;;;;9.6;97.69727;93539.43;;;;
2020/10/02 04:27:21;;;;;;;21.95;15.3;;;;;;;9.6;97.69727;93539.43;;;;
2020/10/02 04:28:33;;;;;;;21.95;15.3;;;;;;;9.6;97.69727;93539.43;;;;
2020/10/02 04:29:46;;;;;;;17.4;14.2;;;;;;;9.8;98.02734;93531.31;;;;
2020/10/02 04:30:58;;;;;;;17.4;14.2;;;;;;;9.8;98.02734;93531.31;;;;
2020/10/02 04:32:03;;;;;;;17.4;14.2;;;;;;;9.8;98.02734;93531.31;;;;
2020/10/02 04:33:09;;;;;;;17.4;14.2;;;;;;;9.8;98.02734;93531.31;;;;
2020/10/02 04:34:10;;;;;;;17.4;14.2;;;;;;;9.8;98.02734;93531.31;;;;
2020/10/02 04:35:17;;;;;;;17.4;14.2;;;;;;;9.8;98.02734;93531.31;;;;
2020/10/02 04:36:25;;;;;;;17.4;14.2;;;;;;;9.8;98.02734;93531.31;;;;
2020/10/02 04:37:28;;;;;;;17.4;14.2;;;;;;;9.8;98.02734;93531.31;;;;
2020/10/02 04:38:31;;;;;;;17.4;14.2;;;;;;;9.8;98.02734;93531.31;;;;
2020/10/02 04:39:31;;;;;;;17.4;14.2;;;;;;;9.8;98.02734;93531.31;;;;
2020/10/02 04:40:32;;;;;;;15.2;13.25;;;;;;;9.93;98.54492;93516.71;;;;
2020/10/02 04:41:34;;;;;;;15.2;13.25;;;;;;;9.93;98.54492;93516.71;;;;
2020/10/02 04:42:36;;;;;;;15.2;13.25;;;;;;;9.93;98.54492;93516.71;;;;
2020/10/02 04:43:37;;;;;;;15.2;13.25;;;;;;;9.93;98.54492;93516.71;;;;
2020/10/02 04:44:38;;;;;;;15.2;13.25;;;;;;;9.93;98.54492;93516.71;;;;
2020/10/02 04:45:39;;;;;;;15.2;13.25;;;;;;;9.93;98.54492;93516.71;;;;
2020/10/02 04:46:41;;;;;;;15.2;13.25;;;;;;;9.93;98.54492;93516.71;;;;
2020/10/02 04:47:49;;;;;;;15.2;13.25;;;;;;;9.93;98.54492;93516.71;;;;
2020/10/02 04:49:01;;;;;;;15.2;13.25;;;;;;;9.93;98.54492;93516.71;;;;
2020/10/02 04:54:54;;;;;;;15.3;12.75;;;;;;;9.88;98.86328;93503.66;;;;
2020/10/02 04:55:59;;;;;;;15.3;12.75;;;;;;;9.88;98.86328;93503.66;;;;
2020/10/02 04:57:17;;;;;;;15.3;12.75;;;;;;;9.88;98.86328;93503.66;;;;
2020/10/02 04:58:42;;;;;;;15.3;12.75;;;;;;;9.88;98.86328;93503.66;;;;
2020/10/02 05:00:03;;;;;;;15.3;12.75;;;;;;;9.88;98.86328;93503.66;;;;
2020/10/02 05:01:11;;;;;;;15.95;12.35;;;;;;;9.92;99.58203;93496.77;;;;
2020/10/02 05:06:29;;;;;;;15.95;12.35;;;;;;;9.92;99.58203;93496.77;;;;
2020/10/02 05:07:44;;;;;;;15.95;12.35;;;;;;;9.92;99.58203;93496.77;;;;
2020/10/02 05:08:51;;;;;;;15.95;12.35;;;;;;;9.92;99.58203;93496.77;;;;
2020/10/02 05:10:18;;;;;;;15.95;12.35;;;;;;;9.92;99.58203;93496.77;;;;
2020/10/02 05:11:31;;;;;;;15.95;12.35;;;;;;;9.92;99.58203;93496.77;;;;
2020/10/02 05:12:44;;;;;;;17.65;12.65;;;;;;;9.8;99.74707;93493.43;;;;
2020/10/02 05:18:06;;;;;;;17.65;12.65;;;;;;;9.8;99.74707;93493.43;;;;
2020/10/02 05:23:33;;;;;;;17;13.85;;;;;;;9.72;100;93465.31;;;;
2020/10/02 05:24:51;;;;;;;17;13.85;;;;;;;9.72;100;93465.31;;;;
2020/10/02 05:26:22;;;;;;;17;13.85;;;;;;;9.72;100;93465.31;;;;
2020/10/02 05:27:39;;;;;;;17;13.85;;;;;;;9.72;100;93465.31;;;;
2020/10/02 05:34:02;;;;;;;18.6;14.65;;;;;;;9.67;100;93451.04;;;;
2020/10/02 05:35:13;;;;;;;18.6;14.65;;;;;;;9.67;100;93451.04;;;;
2020/10/02 05:36:17;;;;;;;18.6;14.65;;;;;;;9.67;100;93451.04;;;;
2020/10/02 05:37:18;;;;;;;18.6;14.65;;;;;;;9.67;100;93451.04;;;;
2020/10/02 05:38:24;;;;;;;18.6;14.65;;;;;;;9.67;100;93451.04;;;;
2020/10/02 05:39:52;;;;;;;18.6;14.65;;;;;;;9.67;100;93451.04;;;;
2020/10/02 05:40:59;;;;;;;18.6;14.65;;;;;;;9.67;100;93451.04;;;;
2020/10/02 05:42:10;;;;;;;18.6;14.65;;;;;;;9.67;100;93451.04;;;;
2020/10/02 05:44:10;;;;;;;20.15;14.85;;;;;;;9.84;100;93439.78;;;;
2020/10/02 05:45:21;;;;;;;20.15;14.85;;;;;;;9.84;100;93439.78;;;;
2020/10/02 05:46:34;;;;;;;20.15;14.85;;;;;;;9.84;100;93439.78;;;;
2020/10/02 05:48:58;;;;;;;20.15;14.85;;;;;;;9.84;100;93439.78;;;;
2020/10/02 05:50:25;;;;;;;20.15;14.85;;;;;;;9.84;100;93439.78;;;;
2020/10/02 05:55:59;;;;;;;17.8;14.85;;;;;;;10.05;100;93432.3;;;;
2020/10/02 05:57:17;;;;;;;17.8;14.85;;;;;;;10.05;100;93432.3;;;;
2020/10/02 05:58:56;;;;;;;17.8;14.85;;;;;;;10.05;100;93432.3;;;;
2020/10/02 06:00:20;;;;;;;17.8;14.85;;;;;;;10.05;100;93432.3;;;;
2020/10/02 06:01:54;;;;;;;17.8;14.85;;;;;;;10.05;100;93432.3;;;;
2020/10/02 06:03:22;;;;;;;17.8;14.85;;;;;;;10.05;100;93432.3;;;;
2020/10/02 06:04:53;;;;;;;17.8;14.85;;;;;;;10.05;100;93432.3;;;;
2020/10/02 06:06:39;;;;;;;19.85;14.4;;;;;;;10.34;100;93417.02;;;;
2020/10/02 06:08:51;;;;;;;19.85;14.4;;;;;;;10.34;100;93417.02;;;;
2020/10/02 06:09:52;;;;;;;19.85;14.4;;;;;;;10.34;100;93417.02;;;;
2020/10/02 06:10:54;;;;;;;19.85;14.4;;;;;;;10.34;100;93417.02;;;;
2020/10/02 06:12:00;;;;;;;19.85;14.4;;;;;;;10.34;100;93417.02;;;;
2020/10/02 06:13:08;;;;;;;19.85;14.4;;;;;;;10.34;100;93417.02;;;;
2020/10/02 06:14:13;;;;;;;19.85;14.4;;;;;;;10.34;100;93417.02;;;;
2020/10/02 06:15:14;;;;;;;19.85;14.4;;;;;;;10.34;100;93417.02;;;;
2020/10/02 06:16:31;;;;;;;14.7;12.95;;;;;;;10.54;100;93416.89;;;;
2020/10/02 06:17:38;;;;;;;14.7;12.95;;;;;;;10.54;100;93416.89;;;;
2020/10/02 06:18:51;;;;;;;14.7;12.95;;;;;;;10.54;100;93416.89;;;;
2020/10/02 06:19:57;;;;;;;14.7;12.95;;;;;;;10.54;100;93416.89;;;;
2020/10/02 06:20:58;;;;;;;14.7;12.95;;;;;;;10.54;100;93416.89;;;;
2020/10/02 06:22:01;;;;;;;14.7;12.95;;;;;;;10.54;100;93416.89;;;;
2020/10/02 06:23:06;;;;;;;14.7;12.95;;;;;;;10.54;100;93416.89;;;;
2020/10/02 06:24:09;;;;;;;14.7;12.95;;;;;;;10.54;100;93416.89;;;;
2020/10/02 06:25:13;;;;;;;14.7;12.95;;;;;;;10.54;100;93416.89;;;;
2020/10/02 06:26:14;;;;;;;14.7;12.95;;;;;;;10.54;100;93416.89;;;;
2020/10/02 06:27:18;;;;;;;16.4;13.1;;;;;;;10.85;100;93389.64;;;;
2020/10/02 06:28:29;;;;;;;16.4;13.1;;;;;;;10.85;100;93389.64;;;;
2020/10/02 06:29:36;;;;;;;16.4;13.1;;;;;;;10.85;100;93389.64;;;;
2020/10/02 06:30:39;;;;;;;16.4;13.1;;;;;;;10.85;100;93389.64;;;;
2020/10/02 06:31:53;;;;;;;16.4;13.1;;;;;;;10.85;100;93389.64;;;;
2020/10/02 06:33:12;;;;;;;16.4;13.1;;;;;;;10.85;100;93389.64;;;;